createdAt,value
2022-08-22T00:00:56.568Z,25.55
2022-08-22T00:02:49.265Z,26.40
2022-08-22T00:02:54.059Z,26.45
2022-08-22T00:03:11.074Z,26.48
2022-08-22T00:04:15.098Z,25.59
2022-08-22T00:07:09.532Z,25.57
2022-08-22T00:09:40.120Z,25.56
2022-08-22T00:12:41.153Z,25.56
2022-08-22T00:15:42.433Z,25.62
2022-08-22T00:18:40.302Z,25.58
2022-08-22T00:21:35.537Z,25.51
2022-08-22T00:24:05.277Z,25.53
2022-08-22T00:26:55.822Z,25.58
2022-08-22T00:29:48.450Z,25.62
2022-08-22T00:32:27.425Z,25.66
2022-08-22T00:35:15.922Z,25.59
2022-08-22T00:38:25.133Z,25.55
2022-08-22T00:41:08.488Z,25.49
2022-08-22T00:43:47.519Z,25.43
2022-08-22T00:46:38.927Z,25.38
2022-08-22T00:49:43.371Z,25.33
2022-08-22T00:52:39.852Z,25.34
2022-08-22T00:55:38.528Z,25.38
2022-08-22T00:58:22.963Z,25.40
2022-08-22T01:00:57.747Z,25.40
2022-08-22T01:03:50.052Z,25.36
2022-08-22T01:06:20.778Z,25.29
2022-08-22T01:08:57.278Z,25.26
2022-08-22T01:11:53.065Z,25.20
2022-08-22T01:14:51.721Z,25.21
2022-08-22T01:17:41.143Z,25.19
2022-08-22T01:20:29.741Z,25.21
2022-08-22T01:23:18.700Z,25.30
2022-08-22T01:25:57.873Z,25.29
2022-08-22T01:28:50.727Z,25.35
2022-08-22T01:31:52.531Z,25.35
2022-08-22T01:34:54.819Z,25.30
2022-08-22T01:37:43.774Z,25.26
2022-08-22T01:40:34.616Z,25.35
2022-08-22T01:43:59.582Z,25.44
2022-08-22T01:46:40.064Z,25.40
2022-08-22T01:49:27.076Z,25.41
2022-08-22T01:51:59.593Z,25.45
2022-08-22T01:54:56.800Z,25.45
2022-08-22T01:57:30.928Z,25.29
2022-08-22T02:00:01.998Z,25.30
2022-08-22T02:03:08.588Z,25.25
2022-08-22T02:05:47.376Z,25.24
2022-08-22T02:08:30.826Z,25.30
2022-08-22T02:11:10.982Z,25.25
2022-08-22T02:14:05.915Z,25.35
2022-08-22T02:16:46.592Z,25.38
2022-08-22T02:19:17.209Z,25.42
2022-08-22T02:22:27.065Z,25.51
2022-08-22T02:25:22.183Z,25.55
2022-08-22T02:28:06.903Z,25.51
2022-08-22T02:30:56.139Z,25.56
2022-08-22T02:33:51.684Z,25.55
2022-08-22T02:36:37.415Z,25.53
2022-08-22T02:39:09.309Z,25.47
2022-08-22T02:42:00.523Z,25.48
2022-08-22T02:44:48.061Z,25.43
2022-08-22T02:47:32.648Z,25.35
2022-08-22T02:50:20.672Z,25.33
2022-08-22T02:53:05.365Z,25.40
2022-08-22T02:55:41.635Z,25.36
2022-08-22T02:58:27.606Z,25.41
2022-08-22T03:00:58.085Z,25.38
2022-08-22T03:03:30.805Z,25.36
2022-08-22T03:06:01.413Z,25.36
2022-08-22T03:09:01.417Z,25.34
2022-08-22T03:11:34.057Z,25.28
2022-08-22T03:14:22.269Z,25.40
2022-08-22T03:17:03.667Z,25.39
2022-08-22T03:19:53.341Z,25.45
2022-08-22T03:22:44.888Z,25.40
2022-08-22T03:25:35.671Z,25.33
2022-08-22T03:28:27.738Z,25.41
2022-08-22T03:31:08.425Z,25.41
2022-08-22T03:33:37.996Z,25.37
2022-08-22T03:36:09.869Z,25.37
2022-08-22T03:38:55.344Z,25.21
2022-08-22T03:41:41.635Z,25.17
2022-08-22T03:44:33.542Z,25.18
2022-08-22T03:47:28.117Z,25.26
2022-08-22T03:50:18.427Z,25.28
2022-08-22T03:53:22.301Z,25.29
2022-08-22T03:56:05.342Z,25.30
2022-08-22T03:58:43.244Z,25.29
2022-08-22T04:01:42.212Z,25.30
2022-08-22T04:04:12.127Z,25.27
2022-08-22T04:06:56.403Z,25.23
2022-08-22T04:09:45.559Z,25.27
2022-08-22T04:12:34.041Z,25.23
2022-08-22T04:15:40.667Z,25.22
2022-08-22T04:18:27.296Z,25.16
2022-08-22T04:21:03.927Z,25.19
2022-08-22T04:23:50.132Z,25.26
2022-08-22T04:26:49.912Z,25.27
2022-08-22T04:29:24.140Z,25.24
2022-08-22T04:32:14.411Z,25.24
2022-08-22T04:34:55.100Z,25.29
2022-08-22T04:37:51.428Z,25.28
2022-08-22T04:40:34.578Z,25.26
2022-08-22T04:43:11.578Z,25.28
2022-08-22T04:46:03.094Z,25.21
2022-08-22T04:48:41.335Z,25.16
2022-08-22T04:51:36.689Z,25.09
2022-08-22T04:54:41.544Z,25.12
2022-08-22T04:57:35.032Z,25.10
2022-08-22T05:00:18.947Z,25.08
2022-08-22T05:03:00.559Z,25.12
2022-08-22T05:05:45.732Z,25.14
2022-08-22T05:08:20.739Z,25.13
2022-08-22T05:10:51.611Z,25.13
2022-08-22T05:13:33.633Z,25.15
2022-08-22T05:16:04.486Z,25.10
2022-08-22T05:18:41.277Z,25.07
2022-08-22T05:21:14.114Z,25.05
2022-08-22T05:23:57.773Z,25.09
2022-08-22T05:26:27.830Z,25.15
2022-08-22T05:29:03.943Z,25.09
2022-08-22T05:31:37.633Z,25.08
2022-08-22T05:34:18.286Z,25.16
2022-08-22T05:36:56.512Z,25.16
2022-08-22T05:39:27.819Z,25.20
2022-08-22T05:42:01.458Z,25.23
2022-08-22T05:44:35.562Z,25.19
2022-08-22T05:47:37.140Z,25.30
2022-08-22T05:50:18.985Z,25.35
2022-08-22T05:53:00.036Z,25.35
2022-08-22T05:55:40.882Z,25.33
2022-08-22T05:58:32.543Z,25.34
2022-08-22T06:01:19.615Z,25.38
2022-08-22T06:03:57.741Z,25.41
2022-08-22T06:06:28.701Z,25.40
2022-08-22T06:09:08.567Z,25.42
2022-08-22T06:11:52.023Z,25.46
2022-08-22T06:15:03.596Z,25.44
2022-08-22T06:17:47.331Z,25.51
2022-08-22T06:20:53.649Z,25.47
2022-08-22T06:23:29.753Z,25.45
2022-08-22T06:26:04.782Z,25.52
2022-08-22T06:28:54.982Z,25.66
2022-08-22T06:31:36.730Z,25.84
2022-08-22T06:34:23.493Z,26.08
2022-08-22T06:36:54.055Z,26.22
2022-08-22T06:39:24.890Z,26.29
2022-08-22T06:42:23.495Z,26.36
2022-08-22T06:45:14.434Z,26.29
2022-08-22T06:47:50.167Z,26.29
2022-08-22T06:50:42.839Z,26.26
2022-08-22T06:53:18.496Z,26.33
2022-08-22T06:56:12.622Z,26.36
2022-08-22T06:58:58.433Z,26.30
2022-08-22T07:01:34.587Z,26.23
2022-08-22T07:04:12.313Z,26.28
2022-08-22T07:06:45.830Z,26.29
2022-08-22T07:09:23.484Z,26.35
2022-08-22T07:11:58.555Z,26.38
2022-08-22T07:14:49.879Z,26.44
2022-08-22T07:17:26.740Z,26.45
2022-08-22T07:20:24.320Z,26.42
2022-08-22T07:22:56.618Z,26.50
2022-08-22T07:25:25.475Z,26.55
2022-08-22T07:27:53.129Z,26.51
2022-08-22T07:30:27.352Z,26.63
2022-08-22T07:33:21.037Z,26.62
2022-08-22T07:36:04.584Z,26.59
2022-08-22T07:39:20.053Z,26.64
2022-08-22T07:42:22.154Z,26.66
2022-08-22T07:45:06.561Z,26.67
2022-08-22T07:48:07.163Z,26.83
2022-08-22T07:51:01.926Z,26.88
2022-08-22T07:53:42.866Z,26.93
2022-08-22T07:56:17.718Z,26.87
2022-08-22T07:58:53.838Z,26.88
2022-08-22T08:01:25.178Z,26.90
2022-08-22T08:04:10.877Z,26.81
2022-08-22T08:06:40.343Z,26.64
2022-08-22T08:09:15.975Z,26.79
2022-08-22T08:11:45.355Z,26.94
2022-08-22T08:14:16.945Z,26.99
2022-08-22T08:16:54.489Z,27.02
2022-08-22T08:19:25.226Z,27.07
2022-08-22T08:21:56.479Z,27.12
2022-08-22T08:24:43.382Z,27.23
2022-08-22T08:27:37.119Z,27.27
2022-08-22T08:30:17.738Z,27.29
2022-08-22T08:32:57.360Z,27.38
2022-08-22T08:36:03.525Z,27.46
2022-08-22T08:38:53.326Z,27.51
2022-08-22T08:41:31.040Z,27.51
2022-08-22T08:44:27.656Z,27.50
2022-08-22T08:47:25.606Z,27.61
2022-08-22T08:50:17.897Z,27.70
2022-08-22T08:53:09.966Z,27.91
2022-08-22T08:55:45.808Z,28.01
2022-08-22T08:58:35.156Z,28.17
2022-08-22T09:01:14.387Z,28.19
2022-08-22T09:04:03.478Z,28.32
2022-08-22T09:07:04.357Z,28.46
2022-08-22T09:09:52.396Z,28.46
2022-08-22T09:13:12.196Z,28.64
2022-08-22T09:16:05.519Z,28.62
2022-08-22T09:19:05.852Z,28.49
2022-08-22T09:21:49.189Z,28.71
2022-08-22T09:24:46.396Z,28.74
2022-08-22T09:27:22.109Z,28.77
2022-08-22T09:30:11.677Z,28.73
2022-08-22T09:33:11.236Z,28.68
2022-08-22T09:35:42.079Z,28.62
2022-08-22T09:38:27.987Z,28.57
2022-08-22T09:41:02.780Z,28.66
2022-08-22T09:43:33.571Z,28.75
2022-08-22T09:46:36.600Z,28.79
2022-08-22T09:49:21.396Z,28.81
2022-08-22T09:52:33.180Z,28.87
2022-08-22T09:55:38.314Z,28.94
2022-08-22T09:58:23.808Z,29.00
2022-08-22T10:01:06.821Z,29.07
2022-08-22T10:03:46.585Z,29.16
2022-08-22T10:06:23.400Z,29.29
2022-08-22T10:09:01.150Z,29.25
2022-08-22T10:12:13.012Z,29.42
2022-08-22T10:15:03.109Z,29.40
2022-08-22T10:17:41.042Z,29.50
2022-08-22T10:20:25.804Z,29.47
2022-08-22T10:23:30.984Z,29.51
2022-08-22T10:26:25.961Z,29.64
2022-08-22T10:29:53.003Z,29.73
2022-08-22T10:32:26.954Z,29.79
2022-08-22T10:35:17.858Z,29.86
2022-08-22T10:37:56.046Z,29.87
2022-08-22T10:40:37.621Z,29.98
2022-08-22T10:43:28.826Z,30.08
2022-08-22T10:46:12.669Z,30.21
2022-08-22T10:49:08.063Z,30.32
2022-08-22T10:52:23.486Z,30.44
2022-08-22T10:55:14.911Z,30.45
2022-08-22T10:57:59.988Z,30.61
2022-08-22T11:00:50.007Z,30.44
2022-08-22T11:04:09.102Z,30.31
2022-08-22T11:06:49.171Z,30.29
2022-08-22T11:09:24.327Z,30.15
2022-08-22T11:12:11.347Z,30.21
2022-08-22T11:15:03.894Z,30.15
2022-08-22T11:17:54.505Z,30.09
2022-08-22T11:20:27.861Z,29.97
2022-08-22T11:23:14.490Z,29.95
2022-08-22T11:26:07.926Z,30.04
2022-08-22T11:29:02.861Z,30.02
2022-08-22T11:32:54.888Z,29.99
2022-08-22T11:35:45.750Z,29.97
2022-08-22T11:38:32.643Z,30.03
2022-08-22T11:41:13.225Z,30.01
2022-08-22T11:43:51.922Z,29.97
2022-08-22T11:46:30.347Z,29.84
2022-08-22T11:49:19.071Z,30.04
2022-08-22T11:52:00.665Z,30.11
2022-08-22T11:54:51.801Z,30.14
2022-08-22T11:57:44.379Z,30.22
2022-08-22T12:00:27.353Z,30.30
2022-08-22T12:03:27.360Z,30.36
2022-08-22T12:06:32.008Z,30.29
2022-08-22T12:09:11.865Z,30.36
2022-08-22T12:12:07.845Z,30.44
2022-08-22T12:15:05.162Z,30.23
2022-08-22T12:18:20.029Z,30.26
2022-08-22T12:21:16.785Z,30.25
2022-08-22T12:24:05.927Z,30.27
2022-08-22T12:26:48.497Z,30.29
2022-08-22T12:29:33.814Z,30.32
2022-08-22T12:32:35.526Z,30.22
2022-08-22T12:35:29.905Z,30.05
2022-08-22T12:38:39.985Z,30.11
2022-08-22T12:41:28.028Z,30.09
2022-08-22T12:44:20.781Z,30.11
2022-08-22T12:47:10.046Z,30.05
2022-08-22T12:50:03.854Z,30.19
2022-08-22T12:52:44.308Z,30.21
2022-08-22T12:55:12.040Z,30.23
2022-08-22T12:58:08.700Z,30.32
2022-08-22T13:00:45.447Z,30.32
2022-08-22T13:03:51.700Z,30.35
2022-08-22T13:06:36.233Z,30.34
2022-08-22T13:09:10.278Z,30.28
2022-08-22T13:11:43.139Z,30.22
2022-08-22T13:14:18.550Z,30.15
2022-08-22T13:16:57.514Z,30.10
2022-08-22T13:19:33.201Z,30.02
2022-08-22T13:22:26.581Z,30.03
2022-08-22T13:25:10.773Z,29.94
2022-08-22T13:27:50.618Z,29.98
2022-08-22T13:30:37.729Z,29.89
2022-08-22T13:33:15.042Z,29.92
2022-08-22T13:35:52.375Z,29.98
2022-08-22T13:38:46.347Z,30.05
2022-08-22T13:41:22.863Z,30.14
2022-08-22T13:44:12.429Z,30.15
2022-08-22T13:47:12.862Z,30.22
2022-08-22T13:49:46.985Z,30.06
2022-08-22T13:52:52.588Z,30.01
2022-08-22T13:55:55.661Z,30.09
2022-08-22T13:58:39.532Z,30.10
2022-08-22T14:01:45.643Z,30.01
2022-08-22T14:04:35.993Z,30.03
2022-08-22T14:07:06.777Z,29.98
2022-08-22T14:09:57.145Z,29.91
2022-08-22T14:12:56.415Z,29.93
2022-08-22T14:15:32.313Z,29.89
2022-08-22T14:18:45.547Z,29.91
2022-08-22T14:21:40.858Z,29.95
2022-08-22T14:24:18.809Z,29.99
2022-08-22T14:26:57.969Z,29.93
2022-08-22T14:29:31.703Z,30.03
2022-08-22T14:32:12.748Z,30.06
2022-08-22T14:34:45.460Z,30.11
2022-08-22T14:37:35.830Z,30.11
2022-08-22T14:40:25.560Z,30.25
2022-08-22T14:43:00.115Z,30.30
2022-08-22T14:45:33.035Z,30.27
2022-08-22T14:48:29.397Z,30.20
2022-08-22T14:51:10.487Z,30.24
2022-08-22T14:53:40.881Z,30.32
2022-08-22T14:56:19.716Z,30.38
2022-08-22T14:58:49.186Z,30.45
2022-08-22T15:01:21.735Z,30.47
2022-08-22T15:04:10.629Z,30.42
2022-08-22T15:06:51.299Z,30.39
2022-08-22T15:09:40.548Z,30.42
2022-08-22T15:12:34.646Z,30.38
2022-08-22T15:15:13.139Z,30.37
2022-08-22T15:17:51.246Z,30.44
2022-08-22T15:20:27.766Z,30.40
2022-08-22T15:23:01.460Z,30.40
2022-08-22T15:25:35.477Z,30.48
2022-08-22T15:28:20.335Z,30.56
2022-08-22T15:30:57.432Z,30.49
2022-08-22T15:33:29.368Z,30.46
2022-08-22T15:36:11.739Z,30.60
2022-08-22T15:38:52.276Z,30.68
2022-08-22T15:41:31.125Z,30.71
2022-08-22T15:44:33.493Z,30.74
2022-08-22T15:47:04.365Z,30.74
2022-08-22T15:49:37.628Z,30.84
2022-08-22T15:52:24.015Z,30.87
2022-08-22T15:54:57.134Z,30.85
2022-08-22T15:57:42.644Z,30.72
2022-08-22T16:00:33.173Z,30.65
2022-08-22T16:03:32.495Z,30.64
2022-08-22T16:06:08.395Z,30.65
2022-08-22T16:08:36.603Z,30.50
2022-08-22T16:11:05.460Z,30.52
2022-08-22T16:13:39.131Z,30.44
2022-08-22T16:16:31.217Z,30.52
2022-08-22T16:18:58.798Z,30.52
2022-08-22T16:21:26.467Z,30.58
2022-08-22T16:23:56.650Z,30.46
2022-08-22T16:26:38.343Z,30.44
2022-08-22T16:29:07.035Z,30.34
2022-08-22T16:31:39.346Z,30.32
2022-08-22T16:34:22.766Z,30.28
2022-08-22T16:37:08.841Z,30.29
2022-08-22T16:39:58.880Z,30.25
2022-08-22T16:42:49.282Z,30.20
2022-08-22T16:45:21.446Z,30.21
2022-08-22T16:47:58.612Z,30.34
2022-08-22T16:50:42.421Z,30.21
2022-08-22T16:53:56.096Z,30.21
2022-08-22T16:56:32.949Z,30.26
2022-08-22T16:59:23.508Z,30.26
2022-08-22T17:02:19.506Z,30.16
2022-08-22T17:05:10.514Z,30.11
2022-08-22T17:08:15.919Z,30.11
2022-08-22T17:11:20.082Z,30.08
2022-08-22T17:13:52.531Z,30.14
2022-08-22T17:16:29.299Z,30.14
2022-08-22T17:19:06.403Z,30.11
2022-08-22T17:21:51.920Z,30.03
2022-08-22T17:24:35.933Z,30.01
2022-08-22T17:27:27.166Z,29.93
2022-08-22T17:30:04.607Z,29.87
2022-08-22T17:33:09.038Z,29.68
2022-08-22T17:36:05.391Z,29.72
2022-08-22T17:39:12.497Z,29.69
2022-08-22T17:41:49.608Z,29.65
2022-08-22T17:45:02.000Z,29.54
2022-08-22T17:47:47.974Z,29.59
2022-08-22T17:50:32.740Z,29.64
2022-08-22T17:53:16.357Z,29.49
2022-08-22T17:56:03.822Z,29.46
2022-08-22T17:58:44.069Z,29.44
2022-08-22T18:01:21.143Z,29.40
2022-08-22T18:04:00.547Z,29.37
2022-08-22T18:06:37.658Z,29.29
2022-08-22T18:09:22.445Z,29.20
2022-08-22T18:11:58.696Z,29.20
2022-08-22T18:14:50.519Z,29.15
2022-08-22T18:17:41.091Z,29.14
2022-08-22T18:20:31.090Z,29.14
2022-08-22T18:23:36.239Z,29.15
2022-08-22T18:26:24.142Z,29.08
2022-08-22T18:28:59.811Z,29.00
2022-08-22T18:32:20.890Z,28.99
2022-08-22T18:35:20.860Z,28.90
2022-08-22T18:38:01.015Z,28.85
2022-08-22T18:40:45.489Z,28.85
2022-08-22T18:43:26.956Z,28.83
2022-08-22T18:46:02.839Z,28.81
2022-08-22T18:49:11.620Z,28.80
2022-08-22T18:51:38.902Z,28.74
2022-08-22T18:54:25.479Z,28.71
2022-08-22T18:56:59.993Z,28.76
2022-08-22T19:00:02.419Z,28.69
2022-08-22T19:02:37.262Z,28.65
2022-08-22T19:05:13.087Z,28.58
2022-08-22T19:07:44.812Z,28.60
2022-08-22T19:10:30.513Z,28.63
2022-08-22T19:13:38.129Z,28.64
2022-08-22T19:16:42.442Z,28.53
2022-08-22T19:19:55.572Z,28.50
2022-08-22T19:22:30.655Z,28.53
2022-08-22T19:25:13.695Z,28.53
2022-08-22T19:28:11.856Z,28.55
2022-08-22T19:30:48.396Z,28.49
2022-08-22T19:33:34.262Z,28.53
2022-08-22T19:36:31.427Z,28.51
2022-08-22T19:39:09.425Z,28.57
2022-08-22T19:42:02.828Z,28.57
2022-08-22T19:44:47.713Z,28.60
2022-08-22T19:47:40.853Z,28.57
2022-08-22T19:50:16.633Z,28.57
2022-08-22T19:53:26.913Z,28.56
2022-08-22T19:56:38.354Z,28.51
2022-08-22T19:59:30.776Z,28.50
2022-08-22T20:02:01.802Z,28.47
2022-08-22T20:04:57.067Z,28.47
2022-08-22T20:07:27.141Z,28.49
2022-08-22T20:10:24.356Z,28.54
2022-08-22T20:13:48.781Z,28.51
2022-08-22T20:16:58.683Z,28.53
2022-08-22T20:22:49.135Z,28.49
2022-08-22T20:25:43.187Z,28.43
2022-08-22T20:28:40.594Z,28.49
2022-08-22T20:31:21.784Z,28.40
2022-08-22T20:34:00.687Z,28.39
2022-08-22T20:36:33.075Z,28.38
2022-08-22T20:39:14.634Z,28.42
2022-08-22T20:41:46.959Z,28.43
2022-08-22T20:44:31.669Z,28.43
2022-08-22T20:47:12.185Z,28.40
2022-08-22T20:49:47.272Z,28.36
2022-08-22T20:52:36.833Z,28.31
2022-08-22T20:55:39.745Z,28.28
2022-08-22T20:58:35.953Z,28.21
2022-08-22T21:01:21.540Z,28.19
2022-08-22T21:03:58.676Z,28.16
2022-08-22T21:06:49.359Z,28.20
2022-08-22T21:09:42.463Z,28.24
2022-08-22T21:12:21.573Z,28.22
2022-08-22T21:14:49.254Z,28.25
2022-08-22T21:17:34.165Z,28.26
2022-08-22T21:20:21.791Z,28.24
2022-08-22T21:22:52.321Z,28.19
2022-08-22T21:25:19.920Z,28.19
2022-08-22T21:27:58.254Z,28.19
2022-08-22T21:30:28.657Z,28.19
2022-08-22T21:32:58.303Z,28.20
2022-08-22T21:35:30.752Z,28.21
2022-08-22T21:37:59.826Z,28.22
2022-08-22T21:40:34.532Z,28.22
2022-08-22T21:43:07.447Z,28.22
2022-08-22T21:45:38.018Z,28.23
2022-08-22T21:48:33.402Z,28.24
2022-08-22T21:51:23.051Z,28.20
2022-08-22T21:54:05.625Z,28.12
2022-08-22T21:56:39.226Z,28.07
2022-08-22T21:59:22.830Z,28.07
2022-08-22T22:01:53.797Z,28.07
2022-08-22T22:04:23.238Z,28.09
2022-08-22T22:06:50.657Z,28.04
2022-08-22T22:09:18.694Z,28.06
2022-08-22T22:11:46.214Z,28.03
2022-08-22T22:14:17.512Z,28.07
2022-08-22T22:16:45.197Z,28.01
2022-08-22T22:19:12.902Z,27.99
2022-08-22T22:21:40.088Z,27.99
2022-08-22T22:24:07.567Z,27.90
2022-08-22T22:26:35.278Z,27.92
2022-08-22T22:29:04.245Z,27.89
2022-08-22T22:31:31.879Z,27.78
2022-08-22T22:34:01.517Z,27.75
2022-08-22T22:36:30.007Z,27.66
2022-08-22T22:38:57.401Z,27.61
2022-08-22T22:41:25.989Z,27.60
2022-08-22T22:43:55.295Z,27.60
2022-08-22T22:46:31.757Z,27.63
2022-08-22T22:48:59.367Z,27.63
2022-08-22T22:51:26.949Z,27.61
2022-08-22T22:54:00.652Z,27.61
2022-08-22T22:56:32.470Z,27.61
2022-08-22T22:59:13.123Z,27.60
2022-08-22T23:02:03.853Z,27.56
2022-08-22T23:04:33.975Z,27.49
2022-08-22T23:07:01.931Z,27.49
2022-08-22T23:09:38.362Z,27.49
2022-08-22T23:12:13.563Z,27.48
2022-08-22T23:14:41.851Z,27.41
2022-08-22T23:17:10.112Z,27.39
2022-08-22T23:19:39.185Z,27.42
2022-08-22T23:22:08.968Z,27.37
2022-08-22T23:24:38.426Z,27.32
2022-08-22T23:27:07.805Z,27.30
2022-08-22T23:29:35.512Z,27.28
2022-08-22T23:32:04.895Z,27.28
2022-08-22T23:34:37.255Z,27.24
2022-08-22T23:37:08.611Z,27.25
2022-08-22T23:39:38.526Z,27.23
2022-08-22T23:42:08.037Z,27.22
2022-08-22T23:44:38.164Z,27.21
2022-08-22T23:47:07.285Z,27.19
2022-08-22T23:49:36.083Z,27.13
2022-08-22T23:52:04.543Z,27.12
2022-08-22T23:54:32.291Z,27.12
2022-08-22T23:57:01.621Z,27.12
2022-08-22T23:59:58.762Z,27.09
